Time,TemperatureF,DewpointF,PressureIn,WindDirection,WindDirectionDegrees,WindSpeedMPH,WindSpeedGustMPH,Humidity,HourlyPrecipIn,Conditions,Clouds,dailyrainin,SoftwareType,DateUTC
2013-06-18 00:01:00,66.6,64.2,29.87,SE,135,0.0,0.2,92,0.00,,,0.00,WUHU216HW,2013-06-18 05:01:00,
2013-06-18 00:06:00,66.4,64.0,29.86,SE,135,0.0,0.2,92,0.00,,,0.00,WUHU216HW,2013-06-18 05:06:00,
2013-06-18 00:11:00,66.2,63.8,29.86,SE,135,0.0,0.0,92,0.00,,,0.00,WUHU216HW,2013-06-18 05:11:00,
2013-06-18 00:16:00,66.1,63.4,29.86,SE,135,0.0,0.0,91,0.00,,,0.00,WUHU216HW,2013-06-18 05:16:00,
2013-06-18 00:21:00,66.1,63.4,29.86,SE,135,0.0,0.0,91,0.00,,,0.00,WUHU216HW,2013-06-18 05:21:00,
2013-06-18 00:26:00,65.9,63.5,29.86,SE,135,0.0,0.0,92,0.00,,,0.00,WUHU216HW,2013-06-18 05:26:00,
2013-06-18 00:31:00,65.7,63.3,29.86,SE,135,0.0,0.0,92,0.00,,,0.00,WUHU216HW,2013-06-18 05:31:00,
2013-06-18 00:36:00,65.5,63.1,29.85,SE,135,0.0,0.0,92,0.00,,,0.00,WUHU216HW,2013-06-18 05:36:00,
2013-06-18 00:41:00,65.3,63.0,29.86,ESE,113,0.0,0.0,92,0.00,,,0.00,WUHU216HW,2013-06-18 05:41:00,
2013-06-18 00:46:00,65.2,62.8,29.86,ESE,113,0.0,0.0,92,0.00,,,0.00,WUHU216HW,2013-06-18 05:46:00,
2013-06-18 00:51:00,65.0,62.7,29.86,ESE,113,0.0,0.0,92,0.00,,,0.00,WUHU216HW,2013-06-18 05:51:00,
2013-06-18 00:56:00,65.0,62.7,29.87,ESE,113,0.0,0.0,92,0.00,,,0.00,WUHU216HW,2013-06-18 05:56:00,
2013-06-18 01:01:00,64.8,62.5,29.86,ESE,113,0.0,0.0,92,0.00,,,0.00,WUHU216HW,2013-06-18 06:01:00,
2013-06-18 01:06:00,64.6,62.6,29.87,ESE,113,0.0,0.0,93,0.00,,,0.00,WUHU216HW,2013-06-18 06:06:00,
2013-06-18 01:11:00,64.4,62.5,29.87,ESE,113,0.0,0.0,93,0.00,,,0.00,WUHU216HW,2013-06-18 06:11:00,
2013-06-18 01:16:00,64.4,62.5,29.88,ESE,113,0.0,0.0,93,0.00,,,0.00,WUHU216HW,2013-06-18 06:16:00,
2013-06-18 01:21:00,64.3,62.3,29.88,ESE,113,0.0,0.0,93,0.00,,,0.00,WUHU216HW,2013-06-18 06:21:00,
2013-06-18 01:26:00,64.1,62.1,29.88,SE,135,0.2,0.4,93,0.00,,,0.00,WUHU216HW,2013-06-18 06:26:00,
2013-06-18 01:31:00,64.1,62.1,29.88,North,0,0.2,1.8,93,0.00,,,0.00,WUHU216HW,2013-06-18 06:31:00,
2013-06-18 01:36:00,63.9,61.9,29.88,NW,315,0.1,1.8,93,0.00,,,0.00,WUHU216HW,2013-06-18 06:36:00,
2013-06-18 01:41:00,63.7,61.8,29.88,NW,315,0.0,0.9,93,0.00,,,0.00,WUHU216HW,2013-06-18 06:41:00,
2013-06-18 01:46:00,63.7,61.8,29.88,North,0,0.2,1.8,93,0.00,,,0.00,WUHU216HW,2013-06-18 06:46:00,
2013-06-18 01:51:00,63.7,61.8,29.88,North,0,0.0,1.8,93,0.00,,,0.00,WUHU216HW,2013-06-18 06:51:00,
2013-06-18 01:56:00,63.7,61.8,29.88,North,0,0.0,0.4,93,0.00,,,0.00,WUHU216HW,2013-06-18 06:56:00,
2013-06-18 02:01:00,63.4,61.4,29.88,North,0,0.0,0.2,93,0.00,,,0.00,WUHU216HW,2013-06-18 07:01:00,
2013-06-18 02:06:00,63.4,61.4,29.88,North,0,0.0,0.2,93,0.00,,,0.00,WUHU216HW,2013-06-18 07:06:00,
2013-06-18 02:11:00,63.2,61.2,29.88,North,0,0.0,0.0,93,0.00,,,0.00,WUHU216HW,2013-06-18 07:11:00,
2013-06-18 02:16:00,63.0,61.0,29.88,North,0,0.0,0.0,93,0.00,,,0.00,WUHU216HW,2013-06-18 07:16:00,
2013-06-18 02:21:00,62.8,60.9,29.88,North,0,0.0,0.0,93,0.01,,,0.01,WUHU216HW,2013-06-18 07:21:00,
2013-06-18 02:26:00,62.6,60.7,29.88,North,0,0.0,0.0,93,0.01,,,0.01,WUHU216HW,2013-06-18 07:26:00,
2013-06-18 02:31:00,62.6,60.7,29.88,North,0,0.0,0.0,93,0.01,,,0.01,WUHU216HW,2013-06-18 07:31:00,
2013-06-18 02:36:00,62.5,60.5,29.88,North,0,0.0,0.0,93,0.01,,,0.01,WUHU216HW,2013-06-18 07:36:00,
2013-06-18 02:41:00,62.3,60.3,29.88,North,0,0.0,0.0,93,0.01,,,0.01,WUHU216HW,2013-06-18 07:41:00,
2013-06-18 02:46:00,62.3,60.3,29.88,North,0,0.0,0.0,93,0.01,,,0.01,WUHU216HW,2013-06-18 07:46:00,
2013-06-18 02:51:00,62.1,60.1,29.87,North,0,0.0,0.0,93,0.01,,,0.01,WUHU216HW,2013-06-18 07:51:00,
2013-06-18 02:56:00,61.9,60.2,29.87,North,0,0.0,0.0,94,0.01,,,0.01,WUHU216HW,2013-06-18 07:56:00,
2013-06-18 03:01:00,61.9,60.2,29.87,North,0,0.0,0.0,94,0.01,,,0.01,WUHU216HW,2013-06-18 08:01:00,
2013-06-18 03:06:00,61.9,60.2,29.87,North,0,0.0,0.0,94,0.01,,,0.01,WUHU216HW,2013-06-18 08:06:00,
2013-06-18 03:11:00,61.7,60.0,29.87,North,0,0.0,0.0,94,0.01,,,0.01,WUHU216HW,2013-06-18 08:11:00,
2013-06-18 03:16:00,61.7,60.0,29.87,North,0,0.0,0.0,94,0.00,,,0.01,WUHU216HW,2013-06-18 08:16:00,
2013-06-18 03:21:00,61.7,60.0,29.87,North,0,0.0,0.0,94,0.00,,,0.01,WUHU216HW,2013-06-18 08:21:00,
2013-06-18 03:26:00,61.7,60.0,29.87,North,0,0.0,0.0,94,0.00,,,0.01,WUHU216HW,2013-06-18 08:26:00,
2013-06-18 03:31:00,61.7,60.0,29.87,North,0,0.0,0.0,94,0.00,,,0.01,WUHU216HW,2013-06-18 08:31:00,
2013-06-18 03:36:00,61.6,59.9,29.88,North,0,0.0,0.0,94,0.00,,,0.01,WUHU216HW,2013-06-18 08:36:00,
2013-06-18 03:41:00,61.6,59.9,29.88,North,0,0.0,0.0,94,0.00,,,0.01,WUHU216HW,2013-06-18 08:41:00,
2013-06-18 03:46:00,61.4,59.7,29.88,North,0,0.4,0.4,94,0.00,,,0.01,WUHU216HW,2013-06-18 08:46:00,
2013-06-18 03:51:00,61.2,59.5,29.88,North,0,0.0,0.4,94,0.00,,,0.01,WUHU216HW,2013-06-18 08:51:00,
2013-06-18 03:56:00,61.2,59.5,29.88,North,0,0.4,0.7,94,0.00,,,0.01,WUHU216HW,2013-06-18 08:56:00,
2013-06-18 04:01:00,61.2,59.5,29.88,North,0,0.0,0.7,94,0.00,,,0.01,WUHU216HW,2013-06-18 09:01:00,
2013-06-18 04:06:00,61.0,59.3,29.88,North,0,0.0,0.0,94,0.00,,,0.01,WUHU216HW,2013-06-18 09:06:00,
2013-06-18 04:11:00,61.0,59.3,29.88,North,0,0.0,0.0,94,0.00,,,0.01,WUHU216HW,2013-06-18 09:11:00,
2013-06-18 04:16:00,61.0,59.3,29.88,North,0,0.0,0.0,94,0.00,,,0.01,WUHU216HW,2013-06-18 09:16:00,
2013-06-18 04:21:00,60.8,59.1,29.88,North,0,0.0,0.0,94,0.00,,,0.01,WUHU216HW,2013-06-18 09:21:00,
2013-06-18 04:26:00,60.8,59.1,29.88,North,0,0.0,0.0,94,0.00,,,0.01,WUHU216HW,2013-06-18 09:26:00,
2013-06-18 04:31:00,60.8,59.1,29.88,North,0,0.0,0.0,94,0.00,,,0.01,WUHU216HW,2013-06-18 09:31:00,
2013-06-18 04:36:00,60.8,59.1,29.88,North,0,0.0,0.0,94,0.00,,,0.01,WUHU216HW,2013-06-18 09:36:00,
2013-06-18 04:41:00,60.8,59.1,29.88,North,0,0.0,0.0,94,0.00,,,0.01,WUHU216HW,2013-06-18 09:41:00,
2013-06-18 04:46:00,60.8,59.1,29.88,North,0,0.0,0.0,94,0.00,,,0.01,WUHU216HW,2013-06-18 09:46:00,
2013-06-18 04:51:00,60.8,59.4,29.88,North,0,0.0,0.0,95,0.00,,,0.01,WUHU216HW,2013-06-18 09:51:00,
2013-06-18 04:56:00,60.8,59.4,29.88,North,0,0.0,0.0,95,0.00,,,0.01,WUHU216HW,2013-06-18 09:56:00,
2013-06-18 05:01:00,60.7,59.2,29.89,North,0,0.0,0.0,95,0.00,,,0.01,WUHU216HW,2013-06-18 10:01:00,
2013-06-18 05:06:00,60.8,59.4,29.89,North,0,0.0,0.0,95,0.00,,,0.01,WUHU216HW,2013-06-18 10:06:00,
2013-06-18 05:11:00,60.7,59.2,29.89,North,0,0.0,0.0,95,0.00,,,0.01,WUHU216HW,2013-06-18 10:11:00,
2013-06-18 05:16:00,60.7,59.2,29.89,North,0,0.0,0.0,95,0.00,,,0.01,WUHU216HW,2013-06-18 10:16:00,
2013-06-18 05:21:00,60.5,59.0,29.89,North,0,0.0,0.0,95,0.00,,,0.01,WUHU216HW,2013-06-18 10:21:00,
2013-06-18 05:26:00,60.5,59.0,29.89,North,0,0.0,0.0,95,0.00,,,0.01,WUHU216HW,2013-06-18 10:26:00,
2013-06-18 05:31:00,60.7,59.2,29.90,North,0,0.0,0.0,95,0.00,,,0.01,WUHU216HW,2013-06-18 10:31:00,
2013-06-18 05:36:00,60.7,59.2,29.90,North,0,0.0,0.0,95,0.00,,,0.01,WUHU216HW,2013-06-18 10:36:00,
2013-06-18 05:41:00,60.7,59.2,29.90,North,0,0.0,0.0,95,0.00,,,0.01,WUHU216HW,2013-06-18 10:41:00,
2013-06-18 05:46:00,60.5,59.0,29.90,North,0,0.0,0.0,95,0.00,,,0.01,WUHU216HW,2013-06-18 10:46:00,
2013-06-18 05:51:00,60.5,59.0,29.91,North,0,0.0,0.0,95,0.00,,,0.01,WUHU216HW,2013-06-18 10:51:00,
2013-06-18 05:56:00,60.7,59.2,29.90,North,0,0.0,0.0,95,0.00,,,0.01,WUHU216HW,2013-06-18 10:56:00,
2013-06-18 06:01:00,60.7,59.2,29.91,North,0,0.0,0.0,95,0.00,,,0.01,WUHU216HW,2013-06-18 11:01:00,
2013-06-18 06:06:00,60.7,59.2,29.91,North,0,0.0,0.0,95,0.00,,,0.01,WUHU216HW,2013-06-18 11:06:00,
2013-06-18 06:11:00,60.7,59.2,29.91,North,0,0.0,0.0,95,0.00,,,0.01,WUHU216HW,2013-06-18 11:11:00,
2013-06-18 06:16:00,60.8,59.4,29.91,North,0,0.0,0.0,95,0.00,,,0.01,WUHU216HW,2013-06-18 11:16:00,
2013-06-18 06:21:00,60.8,59.4,29.91,North,0,0.0,0.0,95,0.00,,,0.01,WUHU216HW,2013-06-18 11:21:00,
2013-06-18 06:26:00,60.8,59.4,29.91,North,0,0.0,0.0,95,0.00,,,0.01,WUHU216HW,2013-06-18 11:26:00,
2013-06-18 06:31:00,60.8,59.4,29.91,North,0,0.0,0.0,95,0.00,,,0.01,WUHU216HW,2013-06-18 11:31:00,
2013-06-18 06:36:00,61.0,59.6,29.91,North,0,0.0,0.0,95,0.00,,,0.01,WUHU216HW,2013-06-18 11:36:00,
2013-06-18 06:41:00,61.0,59.6,29.91,North,0,0.0,0.0,95,0.00,,,0.01,WUHU216HW,2013-06-18 11:41:00,
2013-06-18 06:46:00,61.2,59.8,29.91,North,0,0.0,0.0,95,0.00,,,0.01,WUHU216HW,2013-06-18 11:46:00,
2013-06-18 06:51:00,61.2,59.8,29.91,North,0,0.0,0.0,95,0.00,,,0.01,WUHU216HW,2013-06-18 11:51:00,
2013-06-18 06:56:00,61.4,59.9,29.92,North,0,0.0,0.0,95,0.00,,,0.01,WUHU216HW,2013-06-18 11:56:00,
2013-06-18 07:01:00,61.6,60.1,29.91,North,0,0.0,0.0,95,0.00,,,0.01,WUHU216HW,2013-06-18 12:01:00,
2013-06-18 07:06:00,61.7,60.6,29.92,North,0,0.0,0.0,96,0.00,,,0.01,WUHU216HW,2013-06-18 12:06:00,
2013-06-18 07:11:00,62.1,60.9,29.91,North,0,0.0,0.0,96,0.00,,,0.01,WUHU216HW,2013-06-18 12:11:00,
2013-06-18 07:16:00,62.3,61.1,29.91,North,0,0.2,0.4,96,0.00,,,0.01,WUHU216HW,2013-06-18 12:16:00,
2013-06-18 07:21:00,62.6,61.5,29.91,North,0,0.0,0.4,96,0.00,,,0.01,WUHU216HW,2013-06-18 12:21:00,
2013-06-18 07:26:00,63.0,61.8,29.91,North,0,0.0,0.0,96,0.00,,,0.01,WUHU216HW,2013-06-18 12:26:00,
2013-06-18 07:31:00,63.2,62.0,29.91,North,0,0.3,0.4,96,0.00,,,0.01,WUHU216HW,2013-06-18 12:31:00,
2013-06-18 07:36:00,63.7,62.6,29.91,North,0,0.2,0.4,96,0.00,,,0.01,WUHU216HW,2013-06-18 12:36:00,
2013-06-18 07:41:00,64.1,62.9,29.91,North,0,0.6,0.7,96,0.00,,,0.01,WUHU216HW,2013-06-18 12:41:00,
2013-06-18 07:46:00,64.4,63.3,29.91,North,0,0.8,1.3,96,0.00,,,0.01,WUHU216HW,2013-06-18 12:46:00,
2013-06-18 07:51:00,64.8,63.6,29.91,North,0,0.6,1.3,96,0.00,,,0.01,WUHU216HW,2013-06-18 12:51:00,
2013-06-18 07:56:00,65.2,63.7,29.91,North,0,0.2,0.9,95,0.00,,,0.01,WUHU216HW,2013-06-18 12:56:00,
2013-06-18 08:01:00,65.5,64.0,29.91,North,0,0.2,0.7,95,0.00,,,0.01,WUHU216HW,2013-06-18 13:01:00,
2013-06-18 08:06:00,65.9,64.4,29.91,North,0,0.0,0.2,95,0.00,,,0.01,WUHU216HW,2013-06-18 13:06:00,
2013-06-18 08:11:00,66.2,64.7,29.91,NNE,23,1.6,1.6,95,0.00,,,0.01,WUHU216HW,2013-06-18 13:11:00,
2013-06-18 08:16:00,66.8,65.5,29.91,North,0,0.7,1.6,96,0.00,,,0.01,WUHU216HW,2013-06-18 13:16:00,
2013-06-18 08:21:00,67.5,66.2,29.91,North,0,0.4,0.9,96,0.00,,,0.01,WUHU216HW,2013-06-18 13:21:00,
2013-06-18 08:26:00,68.0,66.5,29.92,North,0,1.8,1.8,95,0.00,,,0.01,WUHU216HW,2013-06-18 13:26:00,
2013-06-18 08:31:00,68.8,67.2,29.92,NW,315,0.7,2.5,95,0.00,,,0.01,WUHU216HW,2013-06-18 13:31:00,
2013-06-18 08:36:00,69.3,67.8,29.92,North,0,0.6,2.5,95,0.00,,,0.01,WUHU216HW,2013-06-18 13:36:00,
2013-06-18 08:41:00,70.0,68.2,29.92,NNW,338,1.8,1.8,94,0.00,,,0.01,WUHU216HW,2013-06-18 13:41:00,
2013-06-18 08:46:00,70.2,68.0,29.93,North,0,0.9,2.5,93,0.00,,,0.01,WUHU216HW,2013-06-18 13:46:00,
2013-06-18 08:51:00,70.6,68.4,29.93,North,0,0.9,2.5,93,0.00,,,0.01,WUHU216HW,2013-06-18 13:51:00,
2013-06-18 08:56:00,70.9,68.1,29.93,NNW,338,0.4,0.9,91,0.00,,,0.01,WUHU216HW,2013-06-18 13:56:00,
2013-06-18 09:01:00,71.3,68.5,29.93,ENE,68,0.9,1.8,91,0.00,,,0.01,WUHU216HW,2013-06-18 14:01:00,
2013-06-18 09:06:00,71.6,68.9,29.93,North,0,0.4,1.8,91,0.00,,,0.01,WUHU216HW,2013-06-18 14:06:00,
2013-06-18 09:11:00,72.2,69.1,29.93,NNE,23,0.9,1.8,90,0.00,,,0.01,WUHU216HW,2013-06-18 14:11:00,
2013-06-18 09:16:00,72.5,69.5,29.93,ENE,68,1.6,1.6,90,0.00,,,0.01,WUHU216HW,2013-06-18 14:16:00,
2013-06-18 09:21:00,72.9,69.5,29.93,NNE,23,1.3,1.8,89,0.00,,,0.01,WUHU216HW,2013-06-18 14:21:00,
2013-06-18 09:26:00,73.3,69.8,29.93,East,90,0.7,1.8,89,0.00,,,0.01,WUHU216HW,2013-06-18 14:26:00,
2013-06-18 09:31:00,73.4,70.4,29.93,North,0,1.7,2.0,90,0.00,,,0.01,WUHU216HW,2013-06-18 14:31:00,
2013-06-18 09:36:00,73.6,69.6,29.93,North,0,1.3,2.0,87,0.00,,,0.01,WUHU216HW,2013-06-18 14:36:00,
2013-06-18 09:41:00,73.8,69.8,29.93,East,90,0.3,1.3,87,0.00,,,0.01,WUHU216HW,2013-06-18 14:41:00,
2013-06-18 09:46:00,74.2,69.8,29.94,NNE,23,2.0,2.0,86,0.00,,,0.01,WUHU216HW,2013-06-18 14:46:00,
2013-06-18 09:51:00,74.5,69.8,29.94,North,0,1.1,2.0,85,0.00,,,0.01,WUHU216HW,2013-06-18 14:51:00,
2013-06-18 09:56:00,74.5,70.1,29.94,NNW,338,0.4,1.1,86,0.00,,,0.01,WUHU216HW,2013-06-18 14:56:00,
2013-06-18 10:01:00,74.9,70.5,29.94,North,0,0.2,1.3,86,0.00,,,0.01,WUHU216HW,2013-06-18 15:01:00,
2013-06-18 10:06:00,75.2,70.8,29.94,NNW,338,0.2,1.6,86,0.00,,,0.01,WUHU216HW,2013-06-18 15:06:00,
2013-06-18 10:11:00,75.6,70.8,29.94,NNW,348,0.7,1.6,85,0.00,,,0.01,WUHU216HW,2013-06-18 15:11:00,
2013-06-18 10:16:00,76.3,71.5,29.94,North,0,0.9,1.3,85,0.00,,,0.01,WUHU216HW,2013-06-18 15:16:00,
2013-06-18 10:21:00,76.5,71.6,29.94,NNE,23,1.1,1.3,85,0.00,,,0.01,WUHU216HW,2013-06-18 15:21:00,
2013-06-18 10:26:00,76.7,70.4,29.93,North,0,1.8,2.7,81,0.00,,,0.01,WUHU216HW,2013-06-18 15:26:00,
2013-06-18 10:31:00,76.9,70.6,29.93,North,0,1.8,2.7,81,0.00,,,0.01,WUHU216HW,2013-06-18 15:31:00,
2013-06-18 10:36:00,77.0,70.4,29.93,NNW,338,2.0,2.2,80,0.00,,,0.01,WUHU216HW,2013-06-18 15:36:00,
2013-06-18 10:41:00,77.2,70.9,29.93,North,0,3.4,3.4,81,0.00,,,0.01,WUHU216HW,2013-06-18 15:41:00,
2013-06-18 10:46:00,77.6,70.9,29.93,NE,36,2.7,4.3,80,0.00,,,0.01,WUHU216HW,2013-06-18 15:46:00,
2013-06-18 10:51:00,77.6,71.3,29.93,NNE,23,1.3,4.3,81,0.00,,,0.01,WUHU216HW,2013-06-18 15:51:00,
2013-06-18 10:56:00,77.9,71.6,29.93,NNE,23,2.5,5.4,81,0.00,,,0.01,WUHU216HW,2013-06-18 15:56:00,
2013-06-18 11:01:00,78.3,71.3,29.93,North,0,1.5,5.4,79,0.00,,,0.01,WUHU216HW,2013-06-18 16:01:00,
2013-06-18 11:06:00,78.8,71.4,29.93,NNW,339,1.3,2.0,78,0.00,,,0.01,WUHU216HW,2013-06-18 16:06:00,
2013-06-18 11:11:00,79.0,71.6,29.93,ENE,68,0.8,2.0,78,0.00,,,0.01,WUHU216HW,2013-06-18 16:11:00,
2013-06-18 11:16:00,79.2,69.4,29.93,North,0,2.2,2.2,72,0.00,,,0.01,WUHU216HW,2013-06-18 16:16:00,
2013-06-18 11:21:00,79.2,70.9,29.94,North,0,2.5,3.4,76,0.00,,,0.01,WUHU216HW,2013-06-18 16:21:00,
2013-06-18 11:26:00,79.4,70.4,29.93,North,0,2.2,3.4,74,0.00,,,0.01,WUHU216HW,2013-06-18 16:26:00,
2013-06-18 11:31:00,79.6,70.9,29.93,North,0,4.7,5.1,75,0.00,,,0.01,WUHU216HW,2013-06-18 16:31:00,
2013-06-18 11:36:00,79.6,71.3,29.93,NNE,23,1.9,5.1,76,0.00,,,0.01,WUHU216HW,2013-06-18 16:36:00,
2013-06-18 11:41:00,79.7,69.1,29.94,NNW,338,1.1,4.0,70,0.00,,,0.01,WUHU216HW,2013-06-18 16:41:00,
2013-06-18 11:46:00,79.7,71.1,29.94,North,9,1.4,1.6,75,0.00,,,0.01,WUHU216HW,2013-06-18 16:46:00,
2013-06-18 11:51:00,79.9,70.1,29.94,SSE,149,0.4,2.2,72,0.00,,,0.01,WUHU216HW,2013-06-18 16:51:00,
2013-06-18 11:56:00,80.3,70.5,29.94,NNE,23,0.3,4.0,72,0.00,,,0.01,WUHU216HW,2013-06-18 16:56:00,
2013-06-18 12:01:00,80.3,68.8,29.94,NNW,347,0.6,4.0,68,0.00,,,0.01,WUHU216HW,2013-06-18 17:01:00,
2013-06-18 12:06:00,80.3,70.5,29.93,NNW,327,1.0,2.0,72,0.00,,,0.01,WUHU216HW,2013-06-18 17:06:00,
2013-06-18 12:11:00,80.5,70.7,29.94,North,6,0.8,1.8,72,0.00,,,0.01,WUHU216HW,2013-06-18 17:11:00,
2013-06-18 12:16:00,80.8,71.7,29.94,North,0,1.3,1.8,74,0.00,,,0.01,WUHU216HW,2013-06-18 17:16:00,
2013-06-18 12:21:00,81.0,71.6,29.94,North,0,1.3,1.8,73,0.00,,,0.01,WUHU216HW,2013-06-18 17:21:00,
2013-06-18 12:26:00,81.0,69.0,29.93,SSW,203,1.1,3.6,67,0.00,,,0.01,WUHU216HW,2013-06-18 17:26:00,
2013-06-18 12:31:00,81.0,70.7,29.93,SW,225,1.8,3.6,71,0.00,,,0.01,WUHU216HW,2013-06-18 17:31:00,
2013-06-18 12:36:00,81.0,68.6,29.94,North,351,1.5,1.8,66,0.00,,,0.01,WUHU216HW,2013-06-18 17:36:00,
2013-06-18 12:41:00,81.2,70.0,29.94,North,0,1.9,4.3,69,0.00,,,0.01,WUHU216HW,2013-06-18 17:41:00,
2013-06-18 12:46:00,81.2,69.6,29.93,WSW,242,1.8,4.5,68,0.00,,,0.01,WUHU216HW,2013-06-18 17:46:00,
2013-06-18 12:51:00,81.2,66.4,29.94,SE,135,2.5,4.5,61,0.00,,,0.01,WUHU216HW,2013-06-18 17:51:00,
2013-06-18 12:56:00,81.4,69.8,29.94,North,0,1.5,2.5,68,0.00,,,0.01,WUHU216HW,2013-06-18 17:56:00,
2013-06-18 13:01:00,81.7,69.2,29.93,North,0,3.8,3.8,66,0.00,,,0.01,WUHU216HW,2013-06-18 18:01:00,
2013-06-18 13:06:00,81.7,70.1,29.94,North,0,0.9,3.8,68,0.00,,,0.01,WUHU216HW,2013-06-18 18:06:00,
2013-06-18 13:11:00,81.7,70.1,29.93,NNE,23,1.1,3.1,68,0.00,,,0.01,WUHU216HW,2013-06-18 18:11:00,
2013-06-18 13:16:00,81.4,68.9,29.93,SE,135,0.8,1.8,66,0.00,,,0.01,WUHU216HW,2013-06-18 18:16:00,
2013-06-18 13:21:00,81.4,70.7,29.93,SSW,203,0.0,1.8,70,0.00,,,0.01,WUHU216HW,2013-06-18 18:21:00,
2013-06-18 13:26:00,81.7,70.6,29.93,North,0,1.5,2.0,69,0.00,,,0.01,WUHU216HW,2013-06-18 18:26:00,
2013-06-18 13:31:00,82.1,69.5,29.93,SSE,158,1.9,2.2,66,0.00,,,0.01,WUHU216HW,2013-06-18 18:31:00,
2013-06-18 13:36:00,82.4,70.7,29.93,ESE,113,0.4,2.2,68,0.00,,,0.01,WUHU216HW,2013-06-18 18:36:00,
2013-06-18 13:41:00,82.6,71.4,29.93,SW,225,1.6,1.6,69,0.00,,,0.01,WUHU216HW,2013-06-18 18:41:00,
2013-06-18 13:46:00,82.8,70.7,29.93,SE,128,1.5,2.0,67,0.00,,,0.01,WUHU216HW,2013-06-18 18:46:00,
2013-06-18 13:51:00,83.0,70.8,29.93,North,0,3.6,4.9,67,0.00,,,0.01,WUHU216HW,2013-06-18 18:51:00,
2013-06-18 13:56:00,83.0,70.8,29.93,North,0,2.3,4.9,67,0.00,,,0.01,WUHU216HW,2013-06-18 18:56:00,
2013-06-18 14:01:00,82.8,70.2,29.93,NNW,338,3.4,3.4,66,0.00,,,0.01,WUHU216HW,2013-06-18 19:01:00,
2013-06-18 14:06:00,82.4,69.4,29.93,North,0,0.8,3.4,65,0.00,,,0.01,WUHU216HW,2013-06-18 19:06:00,
2013-06-18 14:11:00,82.4,68.0,29.93,ESE,113,1.0,3.4,62,0.00,,,0.01,WUHU216HW,2013-06-18 19:11:00,
2013-06-18 14:16:00,82.6,69.1,29.93,SE,135,0.7,3.4,64,0.00,,,0.01,WUHU216HW,2013-06-18 19:16:00,
2013-06-18 14:21:00,82.8,70.7,29.93,SSE,158,1.8,1.8,67,0.00,,,0.01,WUHU216HW,2013-06-18 19:21:00,
2013-06-18 14:27:00,82.8,70.7,29.92,SSW,203,1.1,1.8,67,0.00,,,0.01,WUHU216HW,2013-06-18 19:27:00,
2013-06-18 14:32:00,83.0,70.8,29.92,SE,124,2.6,2.7,67,0.00,,,0.01,WUHU216HW,2013-06-18 19:32:00,
2013-06-18 14:37:00,83.2,71.0,29.92,SE,135,1.9,2.7,67,0.00,,,0.01,WUHU216HW,2013-06-18 19:37:00,
2013-06-18 14:42:00,83.2,71.0,29.93,ESE,113,1.0,2.5,67,0.00,,,0.01,WUHU216HW,2013-06-18 19:42:00,
2013-06-18 14:47:00,83.5,71.8,29.92,ESE,106,1.3,2.0,68,0.00,,,0.01,WUHU216HW,2013-06-18 19:47:00,
2013-06-18 14:52:00,83.9,71.7,29.92,NNW,338,0.6,2.7,67,0.00,,,0.01,WUHU216HW,2013-06-18 19:52:00,
2013-06-18 14:57:00,83.9,69.9,29.92,SE,135,1.7,2.7,63,0.00,,,0.01,WUHU216HW,2013-06-18 19:57:00,
2013-06-18 15:02:00,83.5,68.2,29.91,ESE,113,1.1,2.7,60,0.00,,,0.01,WUHU216HW,2013-06-18 20:02:00,
2013-06-18 15:07:00,83.5,68.7,29.91,NNE,13,1.4,2.7,61,0.00,,,0.01,WUHU216HW,2013-06-18 20:07:00,
2013-06-18 15:12:00,83.5,69.1,29.91,NNE,23,1.2,2.2,62,0.00,,,0.01,WUHU216HW,2013-06-18 20:12:00,
2013-06-18 15:17:00,83.2,70.6,29.91,North,0,0.9,2.2,66,0.00,,,0.01,WUHU216HW,2013-06-18 20:17:00,
2013-06-18 15:22:00,83.2,71.0,29.90,NW,315,0.6,1.3,67,0.00,,,0.01,WUHU216HW,2013-06-18 20:22:00,
2013-06-18 15:27:00,83.3,70.7,29.90,South,180,1.1,3.1,66,0.00,,,0.01,WUHU216HW,2013-06-18 20:27:00,
2013-06-18 15:32:00,83.5,70.0,29.90,SE,134,0.6,3.1,64,0.00,,,0.01,WUHU216HW,2013-06-18 20:32:00,
2013-06-18 15:37:00,83.5,70.5,29.89,North,0,1.5,1.6,65,0.00,,,0.01,WUHU216HW,2013-06-18 20:37:00,
2013-06-18 15:42:00,83.5,69.1,29.89,North,0,1.0,2.2,62,0.00,,,0.01,WUHU216HW,2013-06-18 20:42:00,
2013-06-18 15:47:00,83.2,69.7,29.88,SW,225,1.6,2.2,64,0.00,,,0.01,WUHU216HW,2013-06-18 20:47:00,
2013-06-18 15:52:00,83.3,70.7,29.88,SW,225,1.8,1.8,66,0.00,,,0.01,WUHU216HW,2013-06-18 20:52:00,
2013-06-18 15:57:00,83.5,70.9,29.88,ENE,68,1.1,2.7,66,0.00,,,0.01,WUHU216HW,2013-06-18 20:57:00,
2013-06-18 16:02:00,83.7,70.2,29.88,East,90,1.5,2.7,64,0.00,,,0.01,WUHU216HW,2013-06-18 21:02:00,
2013-06-18 16:07:00,83.9,70.4,29.88,SW,225,0.6,2.7,64,0.00,,,0.01,WUHU216HW,2013-06-18 21:07:00,
2013-06-18 16:12:00,83.9,71.3,29.88,SW,225,1.8,4.0,66,0.00,,,0.01,WUHU216HW,2013-06-18 21:12:00,
2013-06-18 16:17:00,84.4,72.7,29.87,South,190,1.0,4.0,68,0.00,,,0.01,WUHU216HW,2013-06-18 21:17:00,
2013-06-18 16:22:00,84.4,69.1,29.88,SW,225,2.6,3.4,60,0.00,,,0.01,WUHU216HW,2013-06-18 21:22:00,
2013-06-18 16:27:00,84.4,70.0,29.88,SW,225,1.5,3.4,62,0.00,,,0.01,WUHU216HW,2013-06-18 21:27:00,
2013-06-18 16:32:00,84.6,70.7,29.88,West,276,2.0,2.9,63,0.00,,,0.01,WUHU216HW,2013-06-18 21:32:00,
2013-06-18 16:37:00,84.6,71.1,29.88,ESE,113,2.0,2.9,64,0.00,,,0.01,WUHU216HW,2013-06-18 21:37:00,
2013-06-18 16:42:00,84.6,71.6,29.88,WNW,293,0.4,2.2,65,0.00,,,0.01,WUHU216HW,2013-06-18 21:42:00,
2013-06-18 16:47:00,84.6,71.6,29.89,SE,135,0.4,2.5,65,0.00,,,0.01,WUHU216HW,2013-06-18 21:47:00,
2013-06-18 16:52:00,84.6,71.1,29.88,SE,129,0.6,2.5,64,0.00,,,0.01,WUHU216HW,2013-06-18 21:52:00,
2013-06-18 16:57:00,84.6,70.7,29.88,ESE,113,1.1,2.5,63,0.00,,,0.01,WUHU216HW,2013-06-18 21:57:00,
2013-06-18 17:02:00,84.6,71.6,29.89,SSW,203,1.8,2.5,65,0.00,,,0.01,WUHU216HW,2013-06-18 22:02:00,
2013-06-18 17:07:00,84.6,72.0,29.88,South,180,0.3,1.8,66,0.00,,,0.01,WUHU216HW,2013-06-18 22:07:00,
2013-06-18 17:12:00,84.6,70.7,29.88,ESE,113,1.1,1.8,63,0.00,,,0.01,WUHU216HW,2013-06-18 22:12:00,
2013-06-18 17:17:00,84.2,70.7,29.88,East,90,0.0,1.3,64,0.00,,,0.01,WUHU216HW,2013-06-18 22:17:00,
2013-06-18 17:22:00,83.9,69.9,29.88,West,261,0.9,1.3,63,0.00,,,0.01,WUHU216HW,2013-06-18 22:22:00,
2013-06-18 17:27:00,83.9,70.8,29.88,NE,45,1.3,1.3,65,0.00,,,0.01,WUHU216HW,2013-06-18 22:27:00,
2013-06-18 17:32:00,83.5,69.6,29.88,ENE,68,0.9,1.8,63,0.00,,,0.01,WUHU216HW,2013-06-18 22:32:00,
2013-06-18 17:37:00,83.2,70.1,29.88,SE,135,1.1,1.8,65,0.00,,,0.01,WUHU216HW,2013-06-18 22:37:00,
2013-06-18 17:42:00,82.4,69.8,29.88,SE,135,0.9,1.1,66,0.00,,,0.01,WUHU216HW,2013-06-18 22:42:00,
2013-06-18 17:47:00,81.4,69.8,29.88,SE,135,0.4,0.9,68,0.01,,,0.02,WUHU216HW,2013-06-18 22:47:00,
2013-06-18 17:52:00,80.5,69.8,29.88,SE,135,0.1,0.4,70,0.01,,,0.02,WUHU216HW,2013-06-18 22:52:00,
2013-06-18 17:57:00,79.6,69.3,29.88,SE,135,0.4,0.4,71,0.01,,,0.02,WUHU216HW,2013-06-18 22:57:00,
2013-06-18 18:02:00,79.0,69.2,29.89,SE,135,0.1,0.4,72,0.01,,,0.02,WUHU216HW,2013-06-18 23:02:00,
2013-06-18 18:07:00,78.3,69.0,29.90,East,99,2.3,2.9,73,0.01,,,0.02,WUHU216HW,2013-06-18 23:07:00,
2013-06-18 18:12:00,77.9,67.8,29.90,WNW,301,1.2,2.9,71,0.01,,,0.02,WUHU216HW,2013-06-18 23:12:00,
2013-06-18 18:17:00,77.6,67.9,29.90,North,0,1.8,2.7,72,0.01,,,0.02,WUHU216HW,2013-06-18 23:17:00,
2013-06-18 18:22:00,77.4,67.3,29.91,North,0,2.7,3.6,71,0.01,,,0.02,WUHU216HW,2013-06-18 23:22:00,
2013-06-18 18:27:00,77.2,67.1,29.91,North,0,4.9,4.9,71,0.01,,,0.02,WUHU216HW,2013-06-18 23:27:00,
2013-06-18 18:32:00,76.9,66.8,29.90,SSW,203,1.0,4.9,71,0.01,,,0.02,WUHU216HW,2013-06-18 23:32:00,
2013-06-18 18:37:00,76.5,66.4,29.91,North,0,7.6,7.6,71,0.01,,,0.02,WUHU216HW,2013-06-18 23:37:00,
2013-06-18 18:42:00,76.1,66.5,29.91,North,0,5.4,7.6,72,0.00,,,0.02,WUHU216HW,2013-06-18 23:42:00,
2013-06-18 18:47:00,76.0,66.3,29.91,North,0,2.2,5.4,72,0.00,,,0.02,WUHU216HW,2013-06-18 23:47:00,
2013-06-18 18:52:00,75.8,66.2,29.90,NE,34,0.6,2.5,72,0.00,,,0.02,WUHU216HW,2013-06-18 23:52:00,
2013-06-18 18:57:00,75.4,65.8,29.90,SE,135,1.6,2.5,72,0.00,,,0.02,WUHU216HW,2013-06-18 23:57:00,
2013-06-18 19:02:00,75.2,66.0,29.90,ESE,113,1.8,1.8,73,0.00,,,0.02,WUHU216HW,2013-06-19 00:02:00,
2013-06-18 19:07:00,75.1,66.3,29.90,SE,135,1.1,1.8,74,0.00,,,0.02,WUHU216HW,2013-06-19 00:07:00,
2013-06-18 19:12:00,75.2,66.4,29.90,ESE,113,0.2,1.8,74,0.00,,,0.02,WUHU216HW,2013-06-19 00:12:00,
2013-06-18 19:17:00,75.6,66.3,29.91,NE,45,0.4,1.8,73,0.00,,,0.02,WUHU216HW,2013-06-19 00:17:00,
2013-06-18 19:22:00,75.6,66.7,29.91,NNE,23,0.7,1.8,74,0.00,,,0.02,WUHU216HW,2013-06-19 00:22:00,
2013-06-18 19:27:00,75.2,64.8,29.91,North,0,1.3,2.2,70,0.00,,,0.02,WUHU216HW,2013-06-19 00:27:00,
2013-06-18 19:32:00,75.1,65.8,29.90,ENE,68,0.2,2.2,73,0.00,,,0.02,WUHU216HW,2013-06-19 00:32:00,
2013-06-18 19:37:00,74.9,66.1,29.90,ESE,113,0.4,1.6,74,0.00,,,0.02,WUHU216HW,2013-06-19 00:37:00,
2013-06-18 19:42:00,74.5,65.7,29.90,ESE,113,0.1,0.4,74,0.00,,,0.02,WUHU216HW,2013-06-19 00:42:00,
2013-06-18 19:47:00,74.5,66.1,29.90,South,180,0.4,1.1,75,0.00,,,0.02,WUHU216HW,2013-06-19 00:47:00,
2013-06-18 19:52:00,74.2,65.8,29.91,South,180,0.0,1.1,75,0.00,,,0.02,WUHU216HW,2013-06-19 00:52:00,
2013-06-18 19:57:00,74.0,65.6,29.91,SSW,203,0.4,0.4,75,0.00,,,0.02,WUHU216HW,2013-06-19 00:57:00,
2013-06-18 20:02:00,73.8,65.4,29.91,South,180,0.2,0.7,75,0.00,,,0.02,WUHU216HW,2013-06-19 01:02:00,
2013-06-18 20:07:00,73.4,65.1,29.90,SSW,203,0.4,1.1,75,0.00,,,0.02,WUHU216HW,2013-06-19 01:07:00,
2013-06-18 20:12:00,73.1,65.1,29.91,SSW,203,0.0,1.1,76,0.00,,,0.02,WUHU216HW,2013-06-19 01:12:00,
2013-06-18 20:17:00,72.7,64.7,29.90,SSW,203,0.0,0.4,76,0.00,,,0.02,WUHU216HW,2013-06-19 01:17:00,
2013-06-18 20:22:00,72.4,64.7,29.91,SW,225,0.9,0.9,77,0.00,,,0.02,WUHU216HW,2013-06-19 01:22:00,
2013-06-18 20:27:00,72.0,64.4,29.91,SW,225,0.0,0.9,77,0.00,,,0.02,WUHU216HW,2013-06-19 01:27:00,
2013-06-18 20:32:00,71.6,64.0,29.91,West,270,0.0,1.1,77,0.00,,,0.02,WUHU216HW,2013-06-19 01:32:00,
2013-06-18 20:37:00,71.5,63.8,29.92,West,270,0.2,1.1,77,0.00,,,0.02,WUHU216HW,2013-06-19 01:37:00,
2013-06-18 20:42:00,71.1,63.9,29.92,NNE,23,1.1,1.1,78,0.00,,,0.02,WUHU216HW,2013-06-19 01:42:00,
2013-06-18 20:47:00,70.9,64.1,29.92,NNE,23,0.0,1.3,79,0.00,,,0.02,WUHU216HW,2013-06-19 01:47:00,
2013-06-18 20:52:00,70.6,63.7,29.91,NNE,23,0.0,1.3,79,0.00,,,0.02,WUHU216HW,2013-06-19 01:52:00,
2013-06-18 20:57:00,70.4,63.9,29.91,NNE,23,0.0,0.0,80,0.00,,,0.02,WUHU216HW,2013-06-19 01:57:00,
2013-06-18 21:02:00,70.2,63.7,29.92,NNE,23,0.0,0.0,80,0.00,,,0.02,WUHU216HW,2013-06-19 02:02:00,
2013-06-18 21:07:00,69.8,63.4,29.91,NNE,23,0.0,0.0,80,0.00,,,0.02,WUHU216HW,2013-06-19 02:07:00,
2013-06-18 21:12:00,69.8,63.4,29.91,NNE,23,0.0,0.0,80,0.00,,,0.02,WUHU216HW,2013-06-19 02:12:00,
2013-06-18 21:17:00,69.5,63.4,29.91,NNE,23,0.0,0.0,81,0.00,,,0.02,WUHU216HW,2013-06-19 02:17:00,
2013-06-18 21:22:00,69.5,63.4,29.91,NNE,23,0.0,0.0,81,0.00,,,0.02,WUHU216HW,2013-06-19 02:22:00,
2013-06-18 21:27:00,69.1,63.4,29.91,NNE,23,0.0,0.0,82,0.00,,,0.02,WUHU216HW,2013-06-19 02:27:00,
2013-06-18 21:32:00,69.1,63.4,29.91,NNE,23,0.0,0.0,82,0.00,,,0.02,WUHU216HW,2013-06-19 02:32:00,
2013-06-18 21:37:00,68.8,63.1,29.91,NNE,23,0.0,0.0,82,0.00,,,0.02,WUHU216HW,2013-06-19 02:37:00,
2013-06-18 21:42:00,68.6,63.2,29.91,NNE,23,0.0,0.0,83,0.00,,,0.02,WUHU216HW,2013-06-19 02:42:00,
2013-06-18 21:47:00,68.4,63.1,29.91,NNE,23,0.0,0.0,83,0.00,,,0.02,WUHU216HW,2013-06-19 02:47:00,
2013-06-18 21:52:00,68.2,62.9,29.91,NNE,23,0.0,0.0,83,0.00,,,0.02,WUHU216HW,2013-06-19 02:52:00,
2013-06-18 21:57:00,68.0,63.0,29.91,NNE,23,0.0,0.0,84,0.00,,,0.02,WUHU216HW,2013-06-19 02:57:00,
2013-06-18 22:02:00,68.0,63.0,29.91,NNE,23,0.0,0.0,84,0.00,,,0.02,WUHU216HW,2013-06-19 03:02:00,
2013-06-18 22:07:00,67.9,62.8,29.91,NNE,23,0.0,0.0,84,0.00,,,0.02,WUHU216HW,2013-06-19 03:07:00,
2013-06-18 22:12:00,67.7,62.6,29.91,NNE,23,0.0,0.0,84,0.00,,,0.02,WUHU216HW,2013-06-19 03:12:00,
2013-06-18 22:17:00,67.7,62.6,29.91,NNE,23,0.0,0.0,84,0.00,,,0.02,WUHU216HW,2013-06-19 03:17:00,
2013-06-18 22:22:00,67.5,62.5,29.91,NNE,23,0.0,0.0,84,0.00,,,0.02,WUHU216HW,2013-06-19 03:22:00,
2013-06-18 22:27:00,67.3,62.6,29.90,NNE,23,0.0,0.0,85,0.00,,,0.02,WUHU216HW,2013-06-19 03:27:00,
2013-06-18 22:32:00,67.3,62.6,29.90,NNE,23,0.0,0.0,85,0.00,,,0.02,WUHU216HW,2013-06-19 03:32:00,
2013-06-18 22:37:00,67.1,62.5,29.90,NNE,23,0.0,0.0,85,0.00,,,0.02,WUHU216HW,2013-06-19 03:37:00,
2013-06-18 22:42:00,67.1,62.5,29.90,NNE,23,0.0,0.0,85,0.00,,,0.02,WUHU216HW,2013-06-19 03:42:00,
2013-06-18 22:47:00,67.1,62.8,29.89,NNE,23,0.0,0.0,86,0.00,,,0.02,WUHU216HW,2013-06-19 03:47:00,
2013-06-18 22:52:00,67.1,62.5,29.89,NNE,23,0.0,0.0,85,0.00,,,0.02,WUHU216HW,2013-06-19 03:52:00,
2013-06-18 22:57:00,67.1,62.5,29.89,NE,45,0.0,0.0,85,0.00,,,0.02,WUHU216HW,2013-06-19 03:57:00,
2013-06-18 23:01:00,67.1,62.5,29.89,NE,45,0.0,0.0,85,0.00,,,0.02,WUHU216HW,2013-06-19 04:01:00,
2013-06-18 23:06:00,67.1,62.5,29.90,NE,45,0.0,0.0,85,0.00,,,0.02,WUHU216HW,2013-06-19 04:06:00,
2013-06-18 23:11:00,67.1,62.5,29.90,NE,45,0.0,0.0,85,0.00,,,0.02,WUHU216HW,2013-06-19 04:11:00,
2013-06-18 23:16:00,67.1,62.5,29.90,NE,45,0.0,0.0,85,0.00,,,0.02,WUHU216HW,2013-06-19 04:16:00,
2013-06-18 23:21:00,67.1,62.5,29.90,NE,45,0.0,0.0,85,0.00,,,0.02,WUHU216HW,2013-06-19 04:21:00,
2013-06-18 23:26:00,67.0,62.3,29.91,NE,45,0.0,0.0,85,0.00,,,0.02,WUHU216HW,2013-06-19 04:26:00,
2013-06-18 23:31:00,67.0,62.7,29.90,NE,45,0.0,0.0,86,0.00,,,0.02,WUHU216HW,2013-06-19 04:31:00,
2013-06-18 23:36:00,67.0,62.7,29.90,NE,45,0.0,0.0,86,0.00,,,0.02,WUHU216HW,2013-06-19 04:36:00,
2013-06-18 23:41:00,66.8,62.5,29.91,NE,45,0.0,0.0,86,0.00,,,0.02,WUHU216HW,2013-06-19 04:41:00,
2013-06-18 23:46:00,66.8,62.5,29.91,NE,45,0.0,0.0,86,0.00,,,0.02,WUHU216HW,2013-06-19 04:46:00,
2013-06-18 23:51:00,66.6,62.3,29.91,NE,45,0.0,0.0,86,0.00,,,0.02,WUHU216HW,2013-06-19 04:51:00,
2013-06-18 23:56:00,66.6,62.3,29.91,NE,45,0.0,0.0,86,0.00,,,0.02,WUHU216HW,2013-06-19 04:56:00,